createdAt,value
2024-04-10T00:04:35.499Z,29.90
2024-04-10T00:09:41.833Z,31.19
2024-04-10T00:14:45.018Z,32.59
2024-04-10T00:19:51.921Z,32.10
2024-04-10T00:24:57.946Z,32.79
2024-04-10T00:30:01.328Z,33.53
2024-04-10T00:35:05.421Z,33.37
2024-04-10T00:40:12.639Z,33.85
2024-04-10T00:45:18.407Z,34.37
2024-04-10T00:50:22.011Z,34.91
2024-04-10T00:55:29.207Z,34.51
2024-04-10T01:00:32.889Z,35.54
2024-04-10T01:05:36.513Z,35.93
2024-04-10T01:10:43.488Z,35.79
2024-04-10T01:15:47.171Z,35.98
2024-04-10T01:20:50.987Z,36.52
2024-04-10T01:25:57.341Z,36.95
2024-04-10T01:31:01.078Z,37.39
2024-04-10T01:36:05.663Z,37.56
2024-04-10T01:41:12.964Z,38.21
2024-04-10T01:46:17.060Z,38.35
2024-04-10T01:51:21.054Z,38.82
2024-04-10T01:56:27.683Z,40.54
2024-04-10T02:01:32.202Z,40.93
2024-04-10T02:06:35.546Z,41.86
2024-04-10T02:11:42.088Z,41.73
2024-04-10T02:16:45.575Z,42.48
2024-04-10T02:21:52.563Z,41.49
2024-04-10T02:26:59.790Z,42.64
2024-04-10T02:32:02.991Z,43.89
2024-04-10T02:37:07.431Z,44.76
2024-04-10T02:42:14.742Z,44.51
2024-04-10T02:47:17.855Z,43.44
2024-04-10T02:52:21.362Z,44.06
2024-04-10T02:57:27.588Z,45.25
2024-04-10T03:02:31.418Z,47.86
2024-04-10T03:07:34.547Z,47.01
2024-04-10T03:12:44.060Z,45.71
2024-04-10T03:17:47.503Z,46.25
2024-04-10T03:22:52.525Z,46.51
2024-04-10T03:27:58.849Z,46.89
2024-04-10T03:33:02.236Z,48.02
2024-04-10T03:38:05.971Z,46.98
2024-04-10T03:43:11.911Z,45.99
2024-04-10T03:48:15.120Z,46.11
2024-04-10T03:53:18.411Z,47.28
2024-04-10T03:58:24.447Z,47.86
2024-04-10T04:03:27.768Z,47.49
2024-04-10T04:08:31.024Z,47.32
2024-04-10T04:13:37.049Z,47.02
2024-04-10T04:18:40.162Z,47.07
2024-04-10T04:23:44.472Z,46.40
2024-04-10T04:28:51.062Z,47.32
2024-04-10T04:33:54.346Z,46.97
2024-04-10T04:38:57.563Z,47.34
2024-04-10T04:44:04.156Z,48.56
2024-04-10T04:49:08.435Z,47.67
2024-04-10T04:54:11.530Z,46.82
2024-04-10T04:59:17.543Z,48.54
2024-04-10T05:07:58.805Z,49.64
2024-04-10T05:13:01.934Z,49.64
2024-04-10T05:18:05.572Z,49.07
2024-04-10T05:23:11.552Z,49.25
2024-04-10T05:28:14.632Z,49.27
2024-04-10T05:33:17.944Z,50.62
2024-04-10T05:38:23.942Z,51.24
2024-04-10T05:43:27.393Z,51.19
2024-04-10T05:48:30.898Z,53.18
2024-04-10T05:53:37.280Z,52.56
2024-04-10T05:58:40.405Z,53.68
2024-04-10T06:03:46.154Z,52.19
2024-04-10T06:08:52.331Z,52.41
2024-04-10T06:13:55.760Z,52.68
2024-04-10T06:18:58.909Z,53.12
2024-04-10T06:24:04.979Z,53.35
2024-04-10T06:29:08.203Z,53.39
2024-04-10T06:34:11.575Z,54.76
2024-04-10T06:39:17.577Z,54.72
2024-04-10T06:44:20.715Z,52.62
2024-04-10T06:49:23.963Z,53.39
2024-04-10T06:54:30.026Z,53.02
2024-04-10T06:59:35.218Z,53.35
2024-04-10T07:04:38.742Z,53.23
2024-04-10T07:09:44.805Z,53.40
2024-04-10T07:14:47.948Z,53.36
2024-04-10T07:19:52.544Z,53.50
2024-04-10T07:24:58.641Z,53.09
2024-04-10T07:30:01.857Z,53.57
2024-04-10T07:35:05.421Z,53.81
2024-04-10T07:40:12.268Z,54.19
2024-04-10T07:45:15.474Z,54.64
2024-04-10T07:50:18.921Z,55.00
2024-04-10T07:55:24.984Z,55.73
2024-04-10T08:00:28.226Z,54.62
2024-04-10T08:05:31.386Z,55.25
2024-04-10T08:10:37.710Z,53.91
2024-04-10T08:15:41.250Z,54.74
2024-04-10T08:20:44.582Z,55.40
2024-04-10T08:25:50.571Z,56.47
2024-04-10T08:30:53.986Z,57.42
2024-04-10T08:35:58.020Z,56.69
2024-04-10T08:41:04.095Z,57.19
2024-04-10T08:46:09.711Z,57.75
2024-04-10T08:51:13.755Z,58.33
2024-04-10T08:56:19.698Z,57.43
2024-04-10T09:01:29.575Z,57.58
2024-04-10T09:06:33.321Z,58.05
2024-04-10T09:11:40.990Z,58.08
2024-04-10T09:16:44.878Z,59.08
2024-04-10T09:21:57.550Z,59.05
2024-04-10T09:27:11.105Z,59.14
2024-04-10T09:32:15.385Z,62.15
2024-04-10T09:37:19.658Z,61.83
2024-04-10T09:42:28.898Z,60.99
2024-04-10T09:47:34.364Z,60.98
2024-04-10T09:52:38.156Z,61.75
2024-04-10T09:57:44.915Z,61.41
2024-04-10T10:02:48.135Z,61.30
2024-04-10T10:07:52.682Z,61.42
2024-04-10T10:13:07.190Z,63.27
2024-04-10T10:18:15.647Z,66.75
2024-04-10T10:23:21.475Z,64.87
2024-04-10T10:28:27.446Z,66.00
2024-04-10T10:33:30.984Z,65.26
2024-04-10T10:38:34.198Z,64.59
2024-04-10T10:43:40.223Z,60.67
2024-04-10T10:48:44.366Z,62.84
2024-04-10T10:53:47.697Z,61.46
2024-04-10T10:58:53.619Z,62.04
2024-04-10T11:03:56.849Z,62.94
2024-04-10T11:09:07.025Z,63.53
2024-04-10T11:14:14.015Z,64.15
2024-04-10T11:19:17.141Z,62.68
2024-04-10T11:24:20.680Z,63.37
2024-04-10T11:29:26.635Z,62.39
2024-04-10T11:34:29.821Z,62.39
2024-04-10T11:39:32.970Z,61.77
2024-04-10T11:44:38.924Z,61.43
2024-04-10T11:49:44.497Z,60.99
2024-04-10T11:54:47.579Z,60.26
2024-04-10T11:59:53.587Z,60.85
2024-04-10T12:04:56.739Z,61.47
2024-04-10T12:09:59.842Z,61.03
2024-04-10T12:15:06.957Z,61.92
2024-04-10T12:20:11.218Z,63.51
2024-04-10T12:25:14.489Z,63.74
2024-04-10T12:30:20.616Z,63.69
2024-04-10T12:35:23.915Z,63.63
2024-04-10T12:40:27.001Z,62.43
2024-04-10T12:45:35.895Z,61.52
2024-04-10T12:50:39.003Z,64.50
2024-04-10T12:55:42.114Z,64.02
2024-04-10T13:00:48.021Z,63.44
2024-04-10T13:05:56.100Z,59.63
2024-04-10T13:11:07.688Z,58.73
2024-04-10T13:16:15.700Z,59.35
2024-04-10T13:21:18.921Z,55.96
2024-04-10T13:26:22.065Z,55.45
2024-04-10T13:31:29.639Z,55.65
2024-04-10T13:36:35.501Z,54.90
2024-04-10T13:41:38.941Z,54.53
2024-04-10T13:46:44.885Z,53.56
2024-04-10T13:51:48.014Z,52.69
2024-04-10T13:56:51.188Z,52.56
2024-04-10T14:01:57.090Z,51.76
2024-04-10T14:07:00.163Z,50.89
2024-04-10T14:12:03.392Z,49.26
2024-04-10T14:17:15.773Z,47.23
2024-04-10T14:22:26.288Z,47.05
2024-04-10T14:27:29.376Z,46.17
2024-04-10T14:32:36.056Z,45.08
2024-04-10T14:37:39.267Z,45.02
2024-04-10T14:42:43.932Z,43.01
2024-04-10T14:47:49.961Z,40.92
2024-04-10T14:52:53.125Z,39.09
2024-04-10T14:57:56.253Z,39.19
2024-04-10T15:03:02.230Z,37.92
2024-04-10T15:08:05.947Z,37.03
2024-04-10T15:13:10.995Z,36.23
2024-04-10T15:18:19.033Z,35.87
2024-04-10T15:23:23.191Z,37.67
2024-04-10T15:28:27.086Z,36.68
2024-04-10T15:33:34.608Z,35.70
2024-04-10T15:38:38.504Z,34.71
2024-04-10T15:43:46.198Z,34.90
2024-04-10T15:48:52.274Z,34.81
2024-04-10T15:53:55.583Z,35.67
2024-04-10T15:58:58.970Z,33.77
2024-04-10T16:04:05.301Z,32.91
2024-04-10T16:09:08.599Z,33.36
2024-04-10T16:14:11.922Z,34.19
2024-04-10T16:19:17.948Z,33.90
2024-04-10T16:24:21.047Z,33.26
2024-04-10T16:29:24.211Z,35.55
2024-04-10T16:34:30.256Z,34.04
2024-04-10T16:39:33.492Z,33.11
2024-04-10T16:44:36.827Z,33.36
2024-04-10T16:49:42.918Z,31.38
2024-04-10T16:54:46.011Z,32.08
2024-04-10T16:59:49.966Z,30.02
2024-04-10T17:04:56.429Z,29.09
2024-04-10T17:09:59.592Z,29.75
2024-04-10T17:15:02.986Z,29.21
2024-04-10T17:20:10.022Z,28.22
2024-04-10T17:25:13.180Z,31.18
2024-04-10T17:30:16.438Z,26.32
2024-04-10T17:35:22.508Z,27.28
2024-04-10T17:40:25.757Z,26.87
2024-04-10T17:45:28.841Z,26.20
2024-04-10T17:50:37.964Z,25.38
2024-04-10T17:55:41.629Z,27.00
2024-04-10T18:00:44.876Z,27.46
2024-04-10T18:05:50.885Z,26.55
2024-04-10T18:10:55.779Z,26.90
2024-04-10T18:15:59.440Z,27.61
2024-04-10T18:21:06.783Z,29.44
2024-04-10T18:26:11.349Z,32.02
2024-04-10T18:31:14.443Z,30.68
2024-04-10T18:36:20.345Z,28.10
2024-04-10T18:41:23.639Z,27.49
2024-04-10T18:46:27.080Z,25.94
2024-04-10T18:51:32.975Z,26.48
2024-04-10T18:56:36.343Z,26.20
2024-04-10T19:01:39.483Z,25.00
2024-04-10T19:06:54.904Z,23.82
2024-04-10T19:11:58.146Z,22.01
2024-04-10T19:17:01.349Z,22.83
2024-04-10T19:22:07.666Z,22.95
2024-04-10T19:27:10.214Z,23.44
2024-04-10T19:32:13.376Z,23.85
2024-04-10T19:37:19.268Z,22.79
2024-04-10T19:42:22.358Z,23.65
2024-04-10T19:47:25.599Z,21.93
2024-04-10T19:52:31.615Z,22.87
2024-04-10T19:57:34.803Z,23.36
2024-04-10T20:02:37.962Z,22.64
2024-04-10T20:07:44.026Z,22.21
2024-04-10T20:12:47.108Z,21.50
2024-04-10T20:17:50.343Z,21.94
2024-04-10T20:22:56.456Z,23.10
2024-04-10T20:27:59.131Z,22.73
2024-04-10T20:33:02.383Z,21.13
2024-04-10T20:38:08.373Z,22.74
2024-04-10T20:43:11.849Z,21.58
2024-04-10T20:48:15.171Z,21.79
2024-04-10T20:53:21.516Z,20.46
2024-04-10T20:58:24.634Z,21.06
2024-04-10T21:03:28.073Z,19.92
2024-04-10T21:08:34.455Z,22.76
2024-04-10T21:13:37.549Z,22.38
2024-04-10T21:18:40.882Z,22.39
2024-04-10T21:23:47.584Z,22.32
2024-04-10T21:28:50.769Z,23.12
2024-04-10T21:33:54.056Z,23.23
2024-04-10T21:39:00.604Z,24.21
2024-04-10T21:44:04.978Z,24.49
2024-04-10T21:49:08.344Z,23.74
2024-04-10T21:54:14.371Z,23.95
2024-04-10T21:59:19.254Z,22.49
2024-04-10T22:04:22.862Z,20.91
2024-04-10T22:09:28.903Z,21.33
2024-04-10T22:14:32.165Z,22.38
2024-04-10T22:19:35.970Z,22.93
2024-04-10T22:24:42.715Z,23.19
2024-04-10T22:29:45.880Z,23.34
2024-04-10T22:34:49.962Z,23.71
2024-04-10T22:39:56.087Z,25.46
2024-04-10T22:44:59.266Z,24.63
2024-04-10T22:50:02.451Z,25.70
2024-04-10T22:55:08.588Z,24.87
2024-04-10T23:00:12.970Z,25.22
2024-04-10T23:05:30.827Z,24.97
2024-04-10T23:10:42.114Z,24.51
2024-04-10T23:15:45.322Z,24.88
2024-04-10T23:20:48.510Z,25.05
2024-04-10T23:25:54.537Z,24.83
2024-04-10T23:30:57.735Z,25.74
2024-04-10T23:36:00.966Z,26.09
2024-04-10T23:41:06.937Z,25.17
2024-04-10T23:46:10.107Z,26.32
2024-04-10T23:51:13.591Z,25.95
2024-04-10T23:56:19.662Z,25.04
